Time;durP1;ratioP1;P1;durP2;ratioP2;P2;SDS_P1;SDS_P2;PMS_P1;PMS_P2;Temp;Humidity;BMP_temperature;BMP_pressure;BME280_temperature;BME280_humidity;BME280_pressure;Samples;Min_cycle;Max_cycle;Signal;HPM_P1;HPM_P2
2022/01/03 00:01:10;;;;;;;9.52;3.00;;;8.90;99.90;;;;;;5080024;28;20497;-83
2022/01/03 00:03:36;;;;;;;13.93;3.00;;;;;;;;;;5079636;28;20121;-83
2022/01/03 00:06:03;;;;;;;14.77;3.65;;;;;;;;;;5096874;28;20097;-84
2022/01/03 00:08:30;;;;;;;10.95;2.83;;;9.00;99.90;;;;;;5079444;28;20047;-82
2022/01/03 00:10:57;;;;;;;14.20;3.08;;;8.90;99.90;;;;;;5079385;28;20112;-83
2022/01/03 00:13:24;;;;;;;16.42;3.30;;;9.00;99.90;;;;;;5096216;28;20048;-83
2022/01/03 00:15:52;;;;;;;17.80;3.30;;;;;;;;;;5079948;28;20089;-83
2022/01/03 00:18:18;;;;;;;14.35;3.22;;;;;;;;;;5096898;28;20048;-83
2022/01/03 00:20:51;;;;;;;28.67;4.45;;;9.00;99.90;;;;;;5079797;28;20047;-83
2022/01/03 00:23:21;;;;;;;15.68;3.78;;;;;;;;;;5080073;28;20105;-83
2022/01/03 00:25:51;;;;;;;24.33;3.83;;;9.00;99.90;;;;;;5079832;28;20065;-83
2022/01/03 00:28:34;;;;;;;20.50;4.07;;;9.10;99.90;;;;;;5096463;28;20048;-83
2022/01/03 00:31:01;;;;;;;25.05;4.30;;;9.20;99.90;;;;;;5079333;28;20099;-84
2022/01/03 00:33:27;;;;;;;23.90;3.90;;;9.20;99.90;;;;;;5078829;28;20071;-84
2022/01/03 00:35:59;;;;;;;23.05;4.45;;;9.20;99.90;;;;;;5062915;28;20059;-83
2022/01/03 00:38:30;;;;;;;24.27;4.38;;;9.30;99.90;;;;;;5095489;28;20055;-83
2022/01/03 00:40:59;;;;;;;22.90;4.32;;;9.30;99.90;;;;;;5096230;28;20055;-83
2022/01/03 00:43:25;;;;;;;30.63;4.93;;;;;;;;;;5096803;28;20104;-83
2022/01/03 00:45:52;;;;;;;30.05;5.10;;;9.40;99.90;;;;;;5079902;28;20086;-83
2022/01/03 00:48:19;;;;;;;26.25;4.00;;;;;;;;;;5078978;28;20092;-84
2022/01/03 00:50:46;;;;;;;28.88;4.47;;;;;;;;;;5096415;28;20043;-83
2022/01/03 00:53:13;;;;;;;19.58;3.70;;;;;;;;;;5079456;28;20131;-83
2022/01/03 00:55:53;;;;;;;25.95;3.95;;;9.40;99.90;;;;;;5079938;28;20188;-83
2022/01/03 00:58:20;;;;;;;28.00;4.28;;;;;;;;;;5079483;28;20071;-84
2022/01/03 01:00:50;;;;;;;23.85;4.63;;;9.60;99.90;;;;;;5079374;28;20040;-83
2022/01/03 01:03:21;;;;;;;23.33;4.57;;;9.50;99.90;;;;;;5079032;28;20081;-83
2022/01/03 01:05:48;;;;;;;25.05;4.18;;;9.50;99.90;;;;;;5079538;28;20083;-83
2022/01/03 01:08:20;;;;;;;22.98;3.97;;;9.50;99.90;;;;;;5078776;28;20051;-83
2022/01/03 01:10:46;;;;;;;20.50;4.22;;;;;;;;;;5078842;28;20049;-83
2022/01/03 01:13:14;;;;;;;30.48;5.07;;;9.50;99.90;;;;;;5079057;28;20043;-83
2022/01/03 01:15:43;;;;;;;24.63;4.47;;;;;;;;;;5079513;28;20044;-83
2022/01/03 01:18:09;;;;;;;22.48;4.10;;;;;;;;;;5079341;28;20422;-83
2022/01/03 01:20:37;;;;;;;23.45;4.15;;;9.60;99.90;;;;;;5078809;28;20046;-83
2022/01/03 01:23:04;;;;;;;28.23;4.70;;;9.60;99.90;;;;;;5095559;28;20040;-84
2022/01/03 01:28:03;;;;;;;18.90;4.10;;;9.70;99.90;;;;;;5095665;28;20105;-83
2022/01/03 01:30:30;;;;;;;28.50;4.57;;;;;;;;;;5079174;28;20130;-83
2022/01/03 01:33:08;;;;;;;27.88;4.47;;;9.70;99.90;;;;;;5078690;28;20075;-83
2022/01/03 01:35:39;;;;;;;19.40;4.05;;;9.70;99.90;;;;;;5095777;28;20043;-84
2022/01/03 01:38:08;;;;;;;26.73;4.15;;;9.70;99.90;;;;;;5079289;28;20104;-84
2022/01/03 01:40:34;;;;;;;26.85;4.32;;;;;;;;;;5078978;28;20054;-83
2022/01/03 01:43:02;;;;;;;21.20;4.13;;;9.70;99.90;;;;;;5079107;28;20764;-83
2022/01/03 01:45:29;;;;;;;26.27;4.60;;;9.80;99.90;;;;;;5095741;28;20047;-83
2022/01/03 01:47:59;;;;;;;19.40;4.22;;;9.80;99.90;;;;;;5078940;28;20044;-84
2022/01/03 01:50:28;;;;;;;27.05;4.22;;;9.80;99.90;;;;;;5078399;28;20062;-84
2022/01/03 01:52:56;;;;;;;23.13;4.10;;;9.80;99.90;;;;;;5095327;28;20129;-83
2022/01/03 01:55:23;;;;;;;25.92;4.13;;;9.80;99.90;;;;;;5078849;28;20048;-83
2022/01/03 01:57:52;;;;;;;27.33;4.13;;;9.80;99.90;;;;;;5095646;28;20032;-83
2022/01/03 02:00:18;;;;;;;24.63;4.55;;;;;;;;;;5097870;28;20134;-83
2022/01/03 02:02:44;;;;;;;26.77;3.95;;;;;;;;;;5082872;28;20055;-83
2022/01/03 02:05:39;;;;;;;23.73;4.07;;;9.70;99.90;;;;;;5100546;28;20135;-82
2022/01/03 02:08:26;;;;;;;23.20;4.05;;;9.70;99.90;;;;;;5083520;28;20051;-83
2022/01/03 02:11:27;;;;;;;26.92;4.78;;;9.80;99.90;;;;;;5083018;28;20043;-83
2022/01/03 02:13:53;;;;;;;21.45;4.30;;;;;;;;;;5082561;28;20056;-83
2022/01/03 02:16:19;;;;;;;21.70;4.03;;;;;;;;;;5083292;28;20036;-83
2022/01/03 02:18:45;;;;;;;20.30;4.35;;;;;;;;;;5083914;28;20048;-83
2022/01/03 02:21:12;;;;;;;30.83;4.50;;;;;;;;;;5086172;28;20403;-83
2022/01/03 02:23:38;;;;;;;27.65;4.28;;;;;;;;;;5089862;28;20048;-83
2022/01/03 02:26:04;;;;;;;23.20;4.40;;;;;;;;;;5091230;28;20049;-82
2022/01/03 02:28:30;;;;;;;23.83;4.57;;;;;;;;;;5092646;28;20112;-82
2022/01/03 02:30:56;;;;;;;22.35;4.13;;;;;;;;;;5096325;28;20050;-83
2022/01/03 02:33:22;;;;;;;26.77;4.43;;;;;;;;;;5095758;28;20072;-83
2022/01/03 02:35:48;;;;;;;22.80;4.22;;;;;;;;;;5096085;28;20039;-83
2022/01/03 02:38:15;;;;;;;21.55;4.03;;;;;;;;;;5092315;28;20061;-83
2022/01/03 02:40:41;;;;;;;22.00;4.50;;;;;;;;;;5082731;28;20040;-83
2022/01/03 02:43:07;;;;;;;25.80;4.22;;;;;;;;;;5106814;28;20046;-83
2022/01/03 02:45:33;;;;;;;24.95;4.75;;;;;;;;;;5081516;28;20078;-84
2022/01/03 02:48:01;;;;;;;25.50;4.50;;;9.60;99.90;;;;;;5082528;28;20540;-84
2022/01/03 02:50:30;;;;;;;25.35;3.97;;;9.50;99.90;;;;;;5081850;28;20504;-83
2022/01/03 02:52:56;;;;;;;22.35;4.32;;;;;;;;;;5081639;28;20071;-84
2022/01/03 02:55:23;;;;;;;24.00;4.13;;;;;;;;;;5065009;28;20047;-85
2022/01/03 02:57:51;;;;;;;25.42;5.03;;;9.50;99.90;;;;;;5081368;28;20129;-84
2022/01/03 03:00:29;;;;;;;28.67;4.53;;;9.50;99.90;;;;;;5080717;28;20043;-84
2022/01/03 03:02:56;;;;;;;23.23;4.00;;;;;;;;;;5068623;28;20064;-84
2022/01/03 03:05:22;;;;;;;24.77;4.18;;;;;;;;;;5074077;28;20063;-84
2022/01/03 03:07:48;;;;;;;24.05;5.05;;;;;;;;;;5074207;28;20477;-83
2022/01/03 03:10:19;;;;;;;22.40;4.25;;;9.40;99.90;;;;;;5074200;28;20841;-83
2022/01/03 03:12:46;;;;;;;26.00;5.18;;;9.40;99.90;;;;;;5073351;28;20502;-85
2022/01/03 03:15:13;;;;;;;27.08;4.70;;;9.40;99.90;;;;;;5074127;28;20080;-84
2022/01/03 03:17:41;;;;;;;29.33;4.22;;;9.30;99.90;;;;;;5057812;28;20041;-83
2022/01/03 03:20:16;;;;;;;22.10;3.97;;;9.30;99.90;;;;;;5074129;28;20040;-83
2022/01/03 03:22:43;;;;;;;27.97;4.27;;;9.30;99.90;;;;;;5074690;28;20076;-83
2022/01/03 03:25:18;;;;;;;26.85;4.63;;;9.30;99.90;;;;;;5074124;28;20049;-83
2022/01/03 03:27:47;;;;;;;35.42;4.63;;;9.30;99.90;;;;;;5074395;28;20041;-83
2022/01/03 03:30:28;;;;;;;23.90;4.90;;;9.30;99.90;;;;;;5074528;28;20056;-83
2022/01/03 03:32:58;;;;;;;26.63;4.78;;;9.30;99.90;;;;;;5074019;28;20048;-84
2022/01/03 03:35:24;;;;;;;28.88;5.20;;;;;;;;;;5073942;28;20044;-84
2022/01/03 03:37:50;;;;;;;29.10;4.90;;;;;;;;;;5073752;28;20430;-84
2022/01/03 03:40:17;;;;;;;30.75;5.00;;;;;;;;;;5073614;28;20094;-85
2022/01/03 03:42:43;;;;;;;28.27;4.93;;;9.30;99.90;;;;;;5073852;28;20048;-84
2022/01/03 03:45:10;;;;;;;30.95;5.05;;;;;;;;;;5073364;28;20453;-84
2022/01/03 03:47:36;;;;;;;31.05;4.60;;;;;;;;;;5073758;28;20036;-83
2022/01/03 03:50:04;;;;;;;31.55;4.70;;;9.20;99.90;;;;;;5073545;28;20048;-85
2022/01/03 03:52:30;;;;;;;28.90;4.93;;;;;;;;;;5072914;28;20071;-83
2022/01/03 03:54:57;;;;;;;26.10;4.85;;;;;;;;;;5073629;28;20478;-83
2022/01/03 03:57:23;;;;;;;31.10;4.82;;;;;;;;;;5073319;28;20044;-84
2022/01/03 03:59:49;;;;;;;27.40;4.72;;;;;;;;;;5073365;28;20045;-84
2022/01/03 04:02:15;;;;;;;34.67;4.78;;;;;;;;;;5077978;28;20044;-84
2022/01/03 04:04:41;;;;;;;32.33;5.35;;;;;;;;;;5079446;28;20048;-84
2022/01/03 04:07:08;;;;;;;26.60;5.00;;;;;;;;;;5096770;28;20172;-83
2022/01/03 04:09:34;;;;;;;36.00;5.65;;;;;;;;;;5079482;28;20052;-84
2022/01/03 04:12:00;;;;;;;30.48;5.63;;;;;;;;;;5079180;28;20039;-84
2022/01/03 04:14:26;;;;;;;32.85;5.18;;;;;;;;;;5079404;28;20043;-84
2022/01/03 04:16:53;;;;;;;31.05;5.40;;;;;;;;;;5079234;28;20040;-84
2022/01/03 04:19:19;;;;;;;29.05;4.95;;;;;;;;;;5079604;28;20462;-83
2022/01/03 04:21:45;;;;;;;30.10;5.05;;;;;;;;;;5079341;28;20044;-84
2022/01/03 04:24:11;;;;;;;26.13;4.82;;;9.40;99.90;;;;;;5078805;28;20397;-85
2022/01/03 04:26:38;;;;;;;33.70;5.50;;;9.40;99.90;;;;;;5096294;28;20048;-84
2022/01/03 04:29:06;;;;;;;30.13;5.10;;;9.40;99.90;;;;;;5079518;28;20047;-84
2022/01/03 04:31:33;;;;;;;26.55;4.78;;;;;;;;;;5079578;28;20036;-83
2022/01/03 04:33:59;;;;;;;36.17;5.43;;;;;;;;;;5079715;28;20367;-84
2022/01/03 04:36:26;;;;;;;24.60;4.95;;;;;;;;;;5096631;28;20107;-84
2022/01/03 04:38:52;;;;;;;30.70;5.13;;;;;;;;;;5079417;28;20051;-83
2022/01/03 04:41:19;;;;;;;27.77;5.00;;;;;;;;;;5078940;28;20568;-83
2022/01/03 04:43:45;;;;;;;36.33;5.38;;;;;;;;;;5079382;28;20094;-83
2022/01/03 04:46:12;;;;;;;33.38;4.90;;;;;;;;;;5078893;28;20059;-83
2022/01/03 04:48:38;;;;;;;31.23;4.97;;;9.40;99.90;;;;;;5079588;28;20082;-83
2022/01/03 04:51:05;;;;;;;32.97;5.00;;;9.50;99.90;;;;;;5079284;28;20046;-83
2022/01/03 04:53:33;;;;;;;33.42;4.97;;;;;;;;;;5079482;28;20066;-84
2022/01/03 04:55:59;;;;;;;33.80;5.13;;;;;;;;;;5095590;28;20051;-84
2022/01/03 04:58:25;;;;;;;30.70;5.20;;;;;;;;;;5114340;28;20526;-83
2022/01/03 05:00:51;;;;;;;31.60;5.40;;;;;;;;;;5079082;28;20066;-84
2022/01/03 05:03:17;;;;;;;32.63;5.90;;;;;;;;;;5078410;28;20182;-84
2022/01/03 05:05:43;;;;;;;41.22;5.68;;;;;;;;;;5078629;28;20152;-84
2022/01/03 05:08:10;;;;;;;32.03;5.05;;;;;;;;;;5078811;28;20044;-83
2022/01/03 05:10:36;;;;;;;36.35;6.20;;;;;;;;;;5078944;28;20093;-83
2022/01/03 05:13:02;;;;;;;33.50;5.60;;;;;;;;;;5078789;28;20040;-83
2022/01/03 05:15:28;;;;;;;36.15;6.40;;;;;;;;;;5078548;28;20130;-83
2022/01/03 05:17:54;;;;;;;33.20;5.25;;;;;;;;;;5079133;28;20152;-83
2022/01/03 05:20:20;;;;;;;35.63;5.50;;;;;;;;;;5079020;28;20046;-84
2022/01/03 05:22:47;;;;;;;36.65;5.30;;;;;;;;;;5078509;28;20086;-83
2022/01/03 05:25:13;;;;;;;40.00;6.43;;;;;;;;;;5079061;28;20051;-83
2022/01/03 05:27:40;;;;;;;30.98;5.30;;;;;;;;;;5079348;28;20035;-83
2022/01/03 05:30:07;;;;;;;28.02;5.43;;;9.50;99.90;;;;;;5079176;28;20135;-83
2022/01/03 05:32:33;;;;;;;32.40;5.10;;;;;;;;;;5079142;28;20050;-83
2022/01/03 05:34:59;;;;;;;40.22;5.95;;;;;;;;;;5080781;28;20050;-84
2022/01/03 05:37:25;;;;;;;36.00;6.07;;;;;;;;;;5083071;28;20606;-84
2022/01/03 05:39:51;;;;;;;35.33;5.60;;;;;;;;;;5082788;28;20046;-83
2022/01/03 05:42:17;;;;;;;39.22;6.05;;;;;;;;;;5082372;28;20047;-84
2022/01/03 05:44:44;;;;;;;39.40;6.70;;;;;;;;;;5082226;28;20054;-84
2022/01/03 05:47:10;;;;;;;37.38;5.60;;;;;;;;;;5082225;28;20043;-84
2022/01/03 05:49:36;;;;;;;35.65;5.78;;;;;;;;;;5082022;28;20093;-85
2022/01/03 05:52:02;;;;;;;34.90;5.43;;;;;;;;;;5081755;28;20482;-84
2022/01/03 05:54:28;;;;;;;33.63;5.45;;;;;;;;;;5081953;28;20039;-84
2022/01/03 05:56:54;;;;;;;33.08;5.78;;;;;;;;;;5082423;28;20051;-83
2022/01/03 05:59:20;;;;;;;40.45;6.30;;;;;;;;;;5082830;28;20054;-83
2022/01/03 06:01:47;;;;;;;36.13;5.68;;;;;;;;;;5099205;28;20051;-83
2022/01/03 06:04:24;;;;;;;41.67;6.20;;;;;;;;;;5060273;28;20048;-84
2022/01/03 06:06:57;;;;;;;33.88;5.72;;;;;;;;;;5075996;28;20119;-83
2022/01/03 06:09:24;;;;;;;33.25;6.05;;;;;;;;;;5075932;28;20124;-84
2022/01/03 06:11:51;;;;;;;35.95;5.47;;;;;;;;;;5075772;28;20462;-83
2022/01/03 06:14:18;;;;;;;38.70;6.05;;;;;;;;;;5075189;28;20093;-84
2022/01/03 06:16:45;;;;;;;45.55;6.55;;;;;;;;;;5075246;28;20047;-84
2022/01/03 06:19:12;;;;;;;35.22;6.15;;;;;;;;;;5075189;28;20121;-84
2022/01/03 06:21:41;;;;;;;37.17;6.13;;;;;;;;;;5091015;28;20060;-84
2022/01/03 06:24:09;;;;;;;40.92;5.90;;;;;;;;;;5074791;28;20049;-83
2022/01/03 06:26:35;;;;;;;36.65;6.55;;;;;;;;;;5075019;28;20064;-84
2022/01/03 06:29:08;;;;;;;41.05;6.35;;;;;;;;;;5091551;28;20084;-83
2022/01/03 06:31:34;;;;;;;45.63;6.53;;;;;;;;;;5074715;28;20433;-83
2022/01/03 06:34:00;;;;;;;47.15;7.63;;;;;;;;;;5074828;28;20045;-84
2022/01/03 06:36:27;;;;;;;41.03;6.43;;;;;;;;;;5074704;28;20040;-83
2022/01/03 06:38:53;;;;;;;43.33;6.80;;;;;;;;;;5075416;28;20054;-84
2022/01/03 06:41:19;;;;;;;37.90;6.20;;;;;;;;;;5075130;28;20048;-84
2022/01/03 06:43:45;;;;;;;42.83;6.88;;;;;;;;;;5075189;28;20052;-83
2022/01/03 06:46:12;;;;;;;48.58;7.45;;;;;;;;;;5073604;28;20055;-84
2022/01/03 06:48:38;;;;;;;41.50;7.07;;;;;;;;;;5075037;28;20872;-83
2022/01/03 06:51:04;;;;;;;32.30;5.90;;;;;;;;;;5091867;28;20052;-83
2022/01/03 06:53:30;;;;;;;39.28;6.53;;;;;;;;;;5074966;28;20044;-84
2022/01/03 06:55:56;;;;;;;40.38;7.40;;;;;;;;;;5074868;28;20123;-84
2022/01/03 06:58:22;;;;;;;54.42;6.78;;;;;;;;;;5074637;28;20135;-83
2022/01/03 07:00:48;;;;;;;48.08;7.45;;;;;;;;;;5074716;28;20048;-83
2022/01/03 07:03:15;;;;;;;41.22;6.40;;;;;;;;;;5085546;28;20067;-84
2022/01/03 07:05:41;;;;;;;49.20;6.88;;;;;;;;;;5078263;28;20498;-84
2022/01/03 07:08:07;;;;;;;39.50;7.05;;;;;;;;;;5078132;28;20052;-83
2022/01/03 07:10:33;;;;;;;39.10;6.80;;;;;;;;;;5078422;28;20393;-83
2022/01/03 07:13:00;;;;;;;48.95;6.78;;;;;;;;;;5077899;28;20036;-83
2022/01/03 07:20:56;;;;;;;45.28;7.47;;;;;;;;;;5094862;28;20482;-85
2022/01/03 07:23:22;;;;;;;45.50;7.10;;;;;;;;;;5093905;28;20790;-84
2022/01/03 07:25:48;;;;;;;43.67;7.20;;;;;;;;;;5076504;28;20036;-84
2022/01/03 07:28:15;;;;;;;45.47;6.95;;;;;;;;;;5076777;28;20120;-85
2022/01/03 07:30:41;;;;;;;45.00;6.97;;;;;;;;;;5077412;28;20048;-84
2022/01/03 07:33:07;;;;;;;45.25;6.95;;;;;;;;;;5076997;28;20040;-84
2022/01/03 07:35:33;;;;;;;49.28;7.00;;;;;;;;;;5077738;28;20036;-84
2022/01/03 07:38:00;;;;;;;49.40;8.10;;;;;;;;;;5093861;28;20123;-83
2022/01/03 07:40:27;;;;;;;41.90;7.20;;;;;;;;;;5077762;28;20047;-83
2022/01/03 07:42:53;;;;;;;45.00;7.63;;;;;;;;;;5077476;28;20482;-81
2022/01/03 07:45:19;;;;;;;41.08;6.80;;;;;;;;;;5093633;28;20093;-83
2022/01/03 07:47:45;;;;;;;48.40;7.97;;;;;;;;;;5076798;28;20047;-84
2022/01/03 07:50:11;;;;;;;48.63;7.70;;;;;;;;;;5076836;28;20509;-83
2022/01/03 07:52:38;;;;;;;42.13;6.53;;;;;;;;;;5076895;28;20509;-83
2022/01/03 07:55:05;;;;;;;49.13;6.93;;;;;;;;;;5094337;28;20534;-82
2022/01/03 07:57:31;;;;;;;44.03;6.47;;;;;;;;;;5093600;28;20052;-83
2022/01/03 07:59:57;;;;;;;36.35;6.07;;;;;;;;;;5076628;28;20052;-83
2022/01/03 08:02:23;;;;;;;39.80;6.75;;;;;;;;;;5072922;28;20055;-84
2022/01/03 08:04:49;;;;;;;39.38;6.00;;;;;;;;;;5073687;28;20406;-82
2022/01/03 08:07:16;;;;;;;41.75;6.55;;;;;;;;;;5073299;28;20048;-83
2022/01/03 08:09:42;;;;;;;36.63;6.38;;;;;;;;;;5073267;28;20040;-83
2022/01/03 08:12:08;;;;;;;45.92;6.53;;;;;;;;;;5073695;28;20135;-83
2022/01/03 08:14:35;;;;;;;38.47;6.30;;;;;;;;;;5073802;28;20049;-83
2022/01/03 08:17:01;;;;;;;39.65;6.18;;;;;;;;;;5069459;28;20044;-83
2022/01/03 08:19:27;;;;;;;39.42;6.43;;;;;;;;;;5093506;28;20040;-83
2022/01/03 08:21:53;;;;;;;48.22;6.55;;;;;;;;;;5093138;28;20405;-84
2022/01/03 08:24:19;;;;;;;38.40;6.68;;;;;;;;;;5093240;28;20051;-83
2022/01/03 08:26:45;;;;;;;38.83;6.13;;;;;;;;;;5092871;28;20044;-83
2022/01/03 08:29:11;;;;;;;32.28;5.63;;;;;;;;;;5093167;28;20047;-83
2022/01/03 08:31:38;;;;;;;38.45;6.45;;;;;;;;;;5092000;28;20044;-83
2022/01/03 08:34:07;;;;;;;36.33;6.13;;;;;;;;;;5092689;28;20058;-83
2022/01/03 08:36:33;;;;;;;32.70;5.90;;;;;;;;;;5091948;28;20075;-82
2022/01/03 08:38:59;;;;;;;40.85;6.57;;;;;;;;;;5092481;28;20052;-83
2022/01/03 08:41:25;;;;;;;35.22;5.68;;;;;;;;;;5093404;28;20052;-84
2022/01/03 08:43:52;;;;;;;37.33;5.90;;;;;;;;;;5092525;28;20486;-82
2022/01/03 08:46:19;;;;;;;35.15;6.13;;;;;;;;;;5092886;28;20493;-83
2022/01/03 08:48:45;;;;;;;38.00;5.65;;;;;;;;;;5092472;28;20064;-82
2022/01/03 08:51:11;;;;;;;39.85;5.85;;;;;;;;;;5092721;28;20052;-82
2022/01/03 08:53:37;;;;;;;37.38;6.05;;;;;;;;;;5092375;28;20056;-82
2022/01/03 08:56:04;;;;;;;37.05;5.95;;;;;;;;;;5093671;28;20509;-83
2022/01/03 08:58:30;;;;;;;39.05;6.13;;;;;;;;;;5092337;28;20059;-83
2022/01/03 09:00:56;;;;;;;36.92;5.95;;;;;;;;;;5093997;28;20103;-82
2022/01/03 09:03:22;;;;;;;31.67;5.63;;;;;;;;;;5087068;28;20048;-84
2022/01/03 09:05:53;;;;;;;40.72;5.97;;;;;;;;;;5075227;28;20044;-82
2022/01/03 09:08:21;;;;;;;30.13;6.00;;;;;;;;;;5075252;28;20055;-83
2022/01/03 09:10:48;;;;;;;35.72;6.13;;;;;;;;;;5074616;28;20415;-82
2022/01/03 09:13:15;;;;;;;33.25;5.63;;;;;;;;;;5093240;28;20494;-83
2022/01/03 09:15:44;;;;;;;31.48;5.50;;;;;;;;;;5093798;28;20047;-82
2022/01/03 09:18:20;;;;;;;31.65;5.35;;;;;;;;;;5091914;28;20055;-83
2022/01/03 09:20:46;;;;;;;30.13;5.68;;;;;;;;;;5075173;28;20073;-84
2022/01/03 09:23:18;;;;;;;33.28;6.32;;;;;;;;;;5091558;28;20044;-82
2022/01/03 09:31:13;;;;;;;31.02;5.18;;;;;;;;;;5093466;28;20047;-83
2022/01/03 09:33:39;;;;;;;34.63;6.00;;;;;;;;;;5074933;28;20055;-82
2022/01/03 09:36:05;;;;;;;35.13;5.50;;;;;;;;;;5076288;28;20047;-83
2022/01/03 09:38:32;;;;;;;40.13;6.47;;;;;;;;;;5074781;28;20080;-82
2022/01/03 09:41:02;;;;;;;31.98;6.03;;;10.10;99.90;;;;;;5074901;28;20109;-84
2022/01/03 09:43:28;;;;;;;35.28;5.53;;;;;;;;;;5074971;28;20117;-82
2022/01/03 09:45:55;;;;;;;29.45;5.38;;;;;;;;;;5075065;28;20622;-82
2022/01/03 09:48:24;;;;;;;31.35;5.20;;;;;;;;;;5091414;28;20046;-82
2022/01/03 09:50:50;;;;;;;34.50;5.95;;;;;;;;;;5074280;28;20105;-82
2022/01/03 09:53:19;;;;;;;33.40;5.28;;;;;;;;;;5092413;28;20040;-83
2022/01/03 09:55:45;;;;;;;35.30;5.70;;;;;;;;;;5091421;28;20060;-83
2022/01/03 09:58:13;;;;;;;33.70;5.53;;;;;;;;;;5091461;28;20048;-83
2022/01/03 10:00:40;;;;;;;28.98;5.20;;;;;;;;;;5090759;28;20090;-81
2022/01/03 10:03:06;;;;;;;35.45;5.80;;;;;;;;;;5102244;28;20063;-82
2022/01/03 10:05:32;;;;;;;34.33;5.82;;;;;;;;;;5077487;28;20068;-83
2022/01/03 10:07:58;;;;;;;28.08;5.13;;;;;;;;;;5077690;28;20050;-83
2022/01/03 10:10:27;;;;;;;33.25;6.00;;;;;;;;;;5094268;28;20462;-82
2022/01/03 10:12:53;;;;;;;31.60;5.50;;;;;;;;;;5112798;28;20043;-83
2022/01/03 10:15:19;;;;;;;31.60;5.57;;;;;;;;;;5112921;28;20083;-82
2022/01/03 10:17:47;;;;;;;27.92;5.43;;;;;;;;;;5095296;28;20077;-82
2022/01/03 10:20:14;;;;;;;31.92;5.43;;;;;;;;;;5079719;28;20440;-82
2022/01/03 10:22:42;;;;;;;25.73;5.10;;;;;;;;;;5099061;28;20051;-82
2022/01/03 10:25:14;;;;;;;33.78;5.57;;;;;;;;;;5081893;28;20090;-82
2022/01/03 10:27:49;;;;;;;30.67;5.82;;;;;;;;;;5099024;28;20063;-82
2022/01/03 10:30:28;;;;;;;32.55;5.55;;;;;;;;;;5099032;28;20055;-82
2022/01/03 10:32:55;;;;;;;34.15;5.85;;;;;;;;;;5081679;28;20499;-82
2022/01/03 10:35:21;;;;;;;33.47;5.88;;;;;;;;;;5098162;28;20091;-83
2022/01/03 10:37:48;;;;;;;29.13;5.28;;;;;;;;;;5099260;28;20062;-82
2022/01/03 10:40:18;;;;;;;30.98;5.00;;;;;;;;;;5081285;28;20105;-83
2022/01/03 10:42:44;;;;;;;37.25;6.13;;;;;;;;;;5098585;28;20048;-83
2022/01/03 10:45:10;;;;;;;33.95;5.75;;;;;;;;;;5080493;28;20070;-82
2022/01/03 10:47:37;;;;;;;29.77;5.18;;;;;;;;;;5116166;28;20052;-82
2022/01/03 10:50:13;;;;;;;29.92;6.00;;;;;;;;;;5080969;28;20084;-81
2022/01/03 10:52:42;;;;;;;31.50;5.43;;;;;;;;;;5097798;28;20052;-81
2022/01/03 10:55:13;;;;;;;28.75;5.22;;;;;;;;;;5081375;28;20062;-82
2022/01/03 10:57:47;;;;;;;25.63;5.47;;;;;;;;;;5097587;28;20083;-81
2022/01/03 11:00:17;;;;;;;34.33;5.70;;;;;;;;;;5098833;28;20054;-81
2022/01/03 11:03:06;;;;;;;32.63;5.10;;;;;;;;;;5117391;27;20135;-81
2022/01/03 11:05:37;;;;;;;28.52;5.63;;;10.60;99.90;;;;;;5081168;28;20075;-81
2022/01/03 11:10:45;;;;;;;35.40;5.43;;;;;;;;;;5115651;28;20052;-82
2022/01/03 11:13:16;;;;;;;29.40;5.50;;;;;;;;;;5097535;28;20047;-81
2022/01/03 11:16:02;;;;;;;31.55;6.15;;;;;;;;;;5080833;28;20466;-82
2022/01/03 11:18:29;;;;;;;32.50;5.35;;;;;;;;;;5097073;28;20543;-82
2022/01/03 11:21:15;;;;;;;27.83;5.10;;;;;;;;;;5096663;28;20130;-82
2022/01/03 11:23:45;;;;;;;32.25;5.85;;;;;;;;;;5080265;28;20075;-82
2022/01/03 11:26:13;;;;;;;30.02;6.45;;;;;;;;;;5096947;28;20051;-82
2022/01/03 11:28:40;;;;;;;34.40;5.45;;;;;;;;;;5101463;28;20093;-82
2022/01/03 11:31:07;;;;;;;30.02;5.65;;;;;;;;;;5116788;27;20057;-82
2022/01/03 11:33:37;;;;;;;29.35;5.32;;;;;;;;;;5099447;27;20142;-82
2022/01/03 11:36:04;;;;;;;32.22;5.60;;;;;;;;;;5117587;27;20051;-82
2022/01/03 11:38:31;;;;;;;34.70;5.82;;;10.90;99.90;;;;;;5116308;27;20062;-82
2022/01/03 11:41:03;;;;;;;29.02;5.25;;;;;;;;;;5100161;27;20385;-81
2022/01/03 11:43:29;;;;;;;36.25;6.10;;;;;;;;;;5099557;27;20051;-82
2022/01/03 11:45:56;;;;;;;25.90;5.43;;;;;;;;;;5100282;27;20488;-82
2022/01/03 11:48:22;;;;;;;32.15;5.60;;;;;;;;;;5117489;27;20054;-82
2022/01/03 11:50:52;;;;;;;34.47;5.68;;;10.90;99.90;;;;;;5100289;27;20047;-82
2022/01/03 11:53:20;;;;;;;32.60;5.72;;;;;;;;;;5117187;27;20058;-82
2022/01/03 11:55:50;;;;;;;33.58;5.55;;;11.00;99.90;;;;;;5135439;27;20054;-82
2022/01/03 11:58:30;;;;;;;31.30;6.28;;;;;;;;;;5099933;27;20134;-81
2022/01/03 12:03:50;;;;;;;30.05;4.95;;;;;;;;;;5134597;27;20485;-82
2022/01/03 12:06:25;;;;;;;33.20;5.63;;;11.00;99.90;;;;;;5117283;27;20057;-81
2022/01/03 12:09:03;;;;;;;25.85;5.22;;;11.20;99.90;;;;;;5116820;27;20054;-82
2022/01/03 12:11:29;;;;;;;32.85;5.57;;;11.20;99.90;;;;;;5100007;27;20481;-81
2022/01/03 12:13:59;;;;;;;31.35;5.53;;;11.20;99.90;;;;;;5116641;27;20051;-82
2022/01/03 12:16:37;;;;;;;33.55;6.20;;;;;;;;;;5134999;27;20054;-82
2022/01/03 12:19:07;;;;;;;33.33;6.00;;;;;;;;;;5116538;27;20059;-82
2022/01/03 12:21:48;;;;;;;36.05;5.32;;;11.40;99.90;;;;;;5135024;27;20110;-81
2022/01/03 12:24:27;;;;;;;34.65;6.00;;;;;;;;;;5116405;27;20058;-82
2022/01/03 12:27:11;;;;;;;28.50;5.15;;;;;;;;;;5135138;27;20062;-84
2022/01/03 12:29:56;;;;;;;32.55;5.00;;;;;;;;;;5116106;27;20054;-82
2022/01/03 12:32:25;;;;;;;38.13;6.00;;;11.30;99.90;;;;;;5134177;27;20042;-83
2022/01/03 12:35:19;;;;;;;28.35;5.38;;;;;;;;;;5098928;27;20051;-81
2022/01/03 12:37:54;;;;;;;26.38;5.10;;;;;;;;;;5113098;27;20099;-81
2022/01/03 12:40:25;;;;;;;29.98;5.35;;;;;;;;;;5116270;27;20054;-83
2022/01/03 12:42:52;;;;;;;34.28;5.15;;;;;;;;;;5099766;27;20047;-82
2022/01/03 12:45:30;;;;;;;37.92;5.68;;;;;;;;;;5099013;27;20058;-82
2022/01/03 12:48:12;;;;;;;30.27;5.45;;;;;;;;;;5097127;27;20090;-82
2022/01/03 12:50:39;;;;;;;32.72;5.60;;;;;;;;;;5106782;28;20056;-82
2022/01/03 12:53:06;;;;;;;27.92;4.90;;;;;;;;;;5078677;28;20130;-81
2022/01/03 12:55:38;;;;;;;35.58;5.40;;;;;;;;;;5095073;28;20113;-81
2022/01/03 12:58:24;;;;;;;34.10;5.65;;;;;;;;;;5095597;28;20108;-82
2022/01/03 13:00:52;;;;;;;28.33;5.30;;;;;;;;;;5094703;28;20043;-81
2022/01/03 13:03:33;;;;;;;32.28;5.82;;;;;;;;;;5112984;28;20545;-81
2022/01/03 13:06:22;;;;;;;33.30;5.57;;;11.40;99.90;;;;;;5078166;28;20061;-82
2022/01/03 13:08:48;;;;;;;25.00;4.82;;;;;;;;;;5113370;28;20087;-82
2022/01/03 13:11:21;;;;;;;28.50;5.22;;;;;;;;;;5093849;28;20044;-82
2022/01/03 13:13:51;;;;;;;28.65;5.20;;;;;;;;;;5077261;28;20048;-83
2022/01/03 13:16:18;;;;;;;26.77;5.15;;;;;;;;;;5112331;28;20448;-82
2022/01/03 13:18:48;;;;;;;34.95;5.78;;;;;;;;;;5094455;28;20062;-83
2022/01/03 13:21:15;;;;;;;29.65;5.97;;;;;;;;;;5111378;27;20428;-80
2022/01/03 13:23:54;;;;;;;32.78;6.05;;;;;;;;;;5129216;28;20554;-83
2022/01/03 13:26:21;;;;;;;28.08;5.47;;;10.80;99.90;;;;;;5112166;28;20055;-83
2022/01/03 13:28:48;;;;;;;27.30;5.32;;;;;;;;;;5112664;28;20477;-82
2022/01/03 13:31:14;;;;;;;29.60;5.18;;;;;;;;;;5082019;28;20520;-82
2022/01/03 13:33:40;;;;;;;32.38;5.82;;;;;;;;;;5094172;28;20516;-83
2022/01/03 13:36:07;;;;;;;31.88;5.18;;;;;;;;;;5077564;28;20382;-82
2022/01/03 13:38:33;;;;;;;36.00;6.00;;;;;;;;;;5095919;28;20389;-83
2022/01/03 13:41:16;;;;;;;30.02;5.30;;;;;;;;;;5098738;28;20090;-82
2022/01/03 13:43:51;;;;;;;28.58;5.75;;;;;;;;;;5133667;28;20551;-84
2022/01/03 13:49:11;;;;;;;29.75;5.70;;;;;;;;;;5110516;28;19931;-81
2022/01/03 13:51:37;;;;;;;34.78;5.97;;;;;;;;;;5078284;28;20378;-83
2022/01/03 13:54:03;;;;;;;32.25;5.53;;;;;;;;;;5079705;28;20131;-81
2022/01/03 13:56:40;;;;;;;29.73;5.63;;;;;;;;;;5109312;27;20096;-81
2022/01/03 13:59:07;;;;;;;31.20;5.38;;;;;;;;;;5103442;27;20502;-82
2022/01/03 14:01:33;;;;;;;31.98;5.93;;;;;;;;;;5120773;27;20502;-83
2022/01/03 14:03:59;;;;;;;31.17;5.70;;;;;;;;;;5125131;27;20077;-82
2022/01/03 14:06:25;;;;;;;28.20;5.47;;;;;;;;;;5147657;27;20496;-84
2022/01/03 14:08:53;;;;;;;34.55;5.40;;;;;;;;;;5115796;27;20048;-81
2022/01/03 14:11:23;;;;;;;27.98;5.30;;;;;;;;;;5132246;27;20049;-83
2022/01/03 14:13:49;;;;;;;37.97;6.47;;;;;;;;;;5146740;27;20043;-81
2022/01/03 14:16:16;;;;;;;33.00;5.82;;;;;;;;;;5128626;27;20062;-83
2022/01/03 14:18:43;;;;;;;24.55;5.63;;;;;;;;;;5114596;27;20051;-82
2022/01/03 14:21:12;;;;;;;28.05;5.68;;;;;;;;;;5113269;27;20043;-82
2022/01/03 14:23:49;;;;;;;28.55;5.20;;;;;;;;;;5111516;27;20055;-81
2022/01/03 14:26:30;;;;;;;28.80;5.50;;;10.80;99.90;;;;;;5125200;27;20051;-82
2022/01/03 14:29:11;;;;;;;30.70;6.20;;;;;;;;;;5119984;27;20046;-82
2022/01/03 14:31:48;;;;;;;34.25;5.80;;;;;;;;;;5101916;27;20035;-82
2022/01/03 14:34:18;;;;;;;31.73;5.93;;;;;;;;;;5120135;27;20051;-81
2022/01/03 14:36:44;;;;;;;39.22;5.93;;;;;;;;;;5102076;27;20043;-83